Moshoeshoe I International Airport Maseru LS
ICAO: FXMM
IATA: MSU
Category: Medium
Scheduled Services: Yes

Elevation: 5348 ft
TransAlt. 10000 ft.

Airport Communications:
MASERU APP:120.7
MASERU GND:121.7
MASERU TWR:118.5

FXMM Zoom In..

If you have problems with the map follow the link
https://www.worldairports.se/pages/airport.php?
ICAO=FXMM

Runways:

(A) RW 04 length 10476 ft width 148 ft
---- / hdg 36

(B) RW 11 length 3307 ft width 75 ft
---- / hdg 106

(C) RW 22 length 10476 ft width 148 ft
ILS 108.90 / hdg 216

(D) RW 29 length 3307 ft width 75 ft
---- / hdg 286

Location; FXMM
Day. 21 / Time. 09.00 Zulu
* QNH: 1022
* Temperature: 22° c. 71.6°f.
* Wind from: 350° Speed 04 kn.
Dewpoint: 14° c.
Visibility: 10 km or more.
Clouds: Broken 3000 ft.
Clouds: Few 3500 ft.

FXMM 210900Z 35004KT 9999 BKN030 FEW035CB 22/14 Q1022


Wind From 350°
Speed 04 kn.

 
 
jpsmedia worldairports.se 2020   terms of use